| time (UTC) | temp C | wind direction | speed KPH | gust KPH | rain 1hr cm | rain 24hr cm | rain mn cm | humidity % | barometer mb |
| 20260510022703 | 16 | 217 | 3.2 | 11.3 | 0.00 | 0.33 | 0.33 | 68 | 1005.7 |
| 20260510022204 | 16 | 211 | 3.2 | 8.0 | 0.00 | 0.33 | 0.33 | 68 | 1005.7 |
| 20260510021207 | 16 | 211 | 1.6 | 9.7 | 0.00 | 0.33 | 0.33 | 68 | 1005.4 |
| 20260510020704 | 16 | 211 | 1.6 | 4.8 | 0.00 | 0.33 | 0.33 | 68 | 1005.4 |
| 20260510020203 | 16 | 211 | 1.6 | 4.8 | 0.00 | 0.36 | 0.33 | 68 | 1005.4 |
| 20260510015655 | 16 | 211 | 1.6 | 9.7 | 0.00 | 0.36 | 0.33 | 67 | 1005.3 |
| 20260510015142 | 16 | 211 | 1.6 | 9.7 | 0.00 | 0.36 | 0.33 | 67 | 1005.3 |
| 20260510014642 | 16 | 211 | 1.6 | 4.8 | 0.00 | 0.36 | 0.33 | 67 | 1005.3 |
| 20260510014141 | 16 | 211 | 0.0 | 4.8 | 0.00 | 0.36 | 0.33 | 67 | 1005.1 |
| 20260510013639 | 16 | 211 | 0.0 | 4.8 | 0.00 | 0.36 | 0.33 | 67 | 1005.1 |
| 20260510013115 | 16 | 211 | 1.6 | 6.4 | 0.00 | 0.36 | 0.33 | 66 | 1005.1 |
| 20260510012604 | 16 | 211 | 1.6 | 6.4 | 0.00 | 0.36 | 0.33 | 66 | 1004.9 |
| 20260510011555 | 16 | 211 | 1.6 | 6.4 | 0.00 | 0.36 | 0.33 | 65 | 1004.9 |
| 20260510011042 | 16 | 211 | 1.6 | 6.4 | 0.00 | 0.36 | 0.33 | 65 | 1004.8 |
| 20260510010030 | 16 | 211 | 1.6 | 8.0 | 0.00 | 0.36 | 0.33 | 64 | 1004.9 |
| 20260510005014 | 17 | 211 | 3.2 | 9.7 | 0.00 | 0.36 | 0.33 | 63 | 1004.8 |
| 20260510004507 | 17 | 211 | 3.2 | 9.7 | 0.00 | 0.36 | 0.33 | 62 | 1004.8 |
| 20260510004008 | 17 | 211 | 3.2 | 4.8 | 0.00 | 0.36 | 0.33 | 61 | 1004.8 |
| 20260510003508 | 17 | 211 | 3.2 | 8.0 | 0.00 | 0.36 | 0.33 | 61 | 1004.8 |
| 20260510003004 | 17 | 211 | 3.2 | 8.0 | 0.00 | 0.36 | 0.33 | 59 | 1004.5 |
| 20260510002500 | 17 | 211 | 3.2 | 8.0 | 0.00 | 0.36 | 0.33 | 58 | 1004.5 |
| 20260510001956 | 18 | 211 | 3.2 | 6.4 | 0.00 | 0.36 | 0.33 | 57 | 1004.5 |
| 20260510000956 | 18 | 211 | 8.0 | 16.1 | 0.00 | 0.36 | 0.33 | 57 | 1004.5 |
| 20260510000455 | 18 | 211 | 8.0 | 19.3 | 0.00 | 0.36 | 0.33 | 56 | 1004.5 |
| 20260509235955 | 18 | 210 | 8.0 | 19.3 | 0.00 | 0.36 | 0.33 | 56 | 1004.1 |
| 20260509235456 | 18 | 210 | 8.0 | 16.1 | 0.00 | 0.36 | 0.33 | 56 | 1004.1 |
| 20260509234452 | 18 | 208 | 9.7 | 24.1 | 0.00 | 0.36 | 0.33 | 55 | 1004.3 |
| 20260509233939 | 18 | 201 | 11.3 | 24.1 | 0.00 | 0.36 | 0.33 | 55 | 1004.3 |
| 20260509233428 | 18 | 197 | 9.7 | 17.7 | 0.00 | 0.36 | 0.33 | 55 | 1004.3 |
| 20260509232915 | 18 | 200 | 9.7 | 22.5 | 0.00 | 0.36 | 0.33 | 55 | 1004.0 |
| 20260509232411 | 18 | 201 | 9.7 | 22.5 | 0.00 | 0.36 | 0.33 | 55 | 1004.1 |
| 20260509231910 | 18 | 209 | 8.0 | 17.7 | 0.00 | 0.36 | 0.33 | 55 | 1004.1 |
| 20260509231410 | 18 | 205 | 9.7 | 19.3 | 0.00 | 0.36 | 0.33 | 55 | 1004.1 |
| 20260509230906 | 18 | 204 | 11.3 | 19.3 | 0.00 | 0.36 | 0.33 | 55 | 1004.1 |
| 20260509230407 | 18 | 205 | 12.9 | 20.9 | 0.00 | 0.36 | 0.33 | 54 | 1004.1 |
| 20260509225909 | 18 | 197 | 11.3 | 29.0 | 0.00 | 0.36 | 0.33 | 54 | 1004.1 |
| 20260509225407 | 18 | 202 | 8.0 | 29.0 | 0.00 | 0.36 | 0.33 | 55 | 1004.1 |
| 20260509224906 | 19 | 195 | 9.7 | 17.7 | 0.00 | 0.36 | 0.33 | 55 | 1004.1 |
| 20260509224409 | 18 | 187 | 11.3 | 25.7 | 0.00 | 0.36 | 0.33 | 55 | 1004.3 |
| 20260509223858 | 18 | 212 | 11.3 | 25.7 | 0.00 | 0.36 | 0.33 | 54 | 1004.3 |
| 20260509223352 | 18 | 217 | 12.9 | 25.7 | 0.00 | 0.36 | 0.33 | 55 | 1004.3 |
| 20260509222846 | 18 | 210 | 11.3 | 22.5 | 0.00 | 0.36 | 0.33 | 55 | 1004.2 |
| 20260509222337 | 18 | 210 | 9.7 | 22.5 | 0.00 | 0.36 | 0.33 | 56 | 1004.2 |
| 20260509221830 | 18 | 206 | 9.7 | 25.7 | 0.00 | 0.36 | 0.33 | 56 | 1004.2 |
| 20260509221324 | 18 | 217 | 11.3 | 25.7 | 0.00 | 0.36 | 0.33 | 56 | 1004.6 |
| 20260509215805 | 19 | 208 | 11.3 | 22.5 | 0.00 | 0.36 | 0.33 | 54 | 1004.5 |
| 20260509214802 | 20 | 208 | 11.3 | 22.5 | 0.00 | 0.36 | 0.33 | 53 | 1004.6 |
| 20260509214301 | 20 | 236 | 12.9 | 22.5 | 0.00 | 0.36 | 0.33 | 53 | 1004.6 |
| 20260509213753 | 20 | 241 | 9.7 | 22.5 | 0.00 | 0.36 | 0.33 | 53 | 1004.5 |
| 20260509213252 | 20 | 229 | 6.4 | 17.7 | 0.00 | 0.36 | 0.33 | 56 | 1004.5 |
| 20260509212249 | 19 | 208 | 12.9 | 27.4 | 0.00 | 0.36 | 0.33 | 56 | 1004.6 |
| 20260509211748 | 19 | 217 | 12.9 | 24.1 | 0.00 | 0.36 | 0.33 | 55 | 1004.6 |
| 20260509211250 | 19 | 214 | 12.9 | 27.4 | 0.00 | 0.36 | 0.33 | 57 | 1004.6 |
| 20260509210742 | 19 | 200 | 11.3 | 27.4 | 0.00 | 0.36 | 0.33 | 56 | 1004.6 |
| 20260509210244 | 19 | 195 | 8.0 | 17.7 | 0.00 | 0.36 | 0.33 | 58 | 1004.6 |
| 20260509205740 | 18 | 203 | 8.0 | 24.1 | 0.00 | 0.36 | 0.33 | 59 | 1005.0 |
| 20260509205231 | 18 | 202 | 9.7 | 24.1 | 0.00 | 0.36 | 0.33 | 60 | 1005.0 |
| 20260509204728 | 18 | 205 | 9.7 | 22.5 | 0.00 | 0.36 | 0.33 | 58 | 1005.0 |
| 20260509204232 | 18 | 210 | 11.3 | 22.5 | 0.00 | 0.36 | 0.33 | 59 | 1005.0 |
| 20260509203731 | 18 | 246 | 9.7 | 17.7 | 0.00 | 0.36 | 0.33 | 61 | 1005.0 |
| 20260509203226 | 18 | 191 | 8.0 | 17.7 | 0.00 | 0.36 | 0.33 | 61 | 1005.0 |
| 20260509202728 | 18 | 187 | 6.4 | 16.1 | 0.00 | 0.36 | 0.33 | 60 | 1005.1 |
| 20260509201726 | 18 | 267 | 12.9 | 27.4 | 0.00 | 0.36 | 0.33 | 63 | 1005.1 |
| 20260509201223 | 18 | 203 | 9.7 | 20.9 | 0.00 | 0.36 | 0.33 | 63 | 1005.2 |
| 20260509200212 | 18 | 248 | 9.7 | 22.5 | 0.00 | 0.36 | 0.33 | 61 | 1005.2 |
| 20260509195705 | 18 | 250 | 9.7 | 22.5 | 0.00 | 0.36 | 0.33 | 62 | 1005.5 |
| 20260509195200 | 18 | 257 | 12.9 | 22.5 | 0.00 | 0.36 | 0.33 | 63 | 1005.5 |
| 20260509194655 | 18 | 257 | 11.3 | 22.5 | 0.00 | 0.36 | 0.33 | 64 | 1005.4 |
| 20260509194144 | 17 | 234 | 12.9 | 22.5 | 0.00 | 0.36 | 0.33 | 66 | 1005.6 |
| 20260509193641 | 17 | 227 | 9.7 | 22.5 | 0.00 | 0.36 | 0.33 | 65 | 1005.6 |
| 20260509193131 | 17 | 202 | 8.0 | 19.3 | 0.00 | 0.36 | 0.33 | 67 | 1005.6 |
| 20260509192623 | 17 | 201 | 11.3 | 19.3 | 0.00 | 0.36 | 0.33 | 69 | 1005.6 |
| 20260509192111 | 17 | 208 | 11.3 | 19.3 | 0.00 | 0.36 | 0.33 | 70 | 1005.6 |
| 20260509191605 | 17 | 210 | 12.9 | 29.0 | 0.00 | 0.36 | 0.33 | 71 | 1005.6 |
| 20260509191056 | 17 | 220 | 12.9 | 29.0 | 0.00 | 0.36 | 0.33 | 70 | 1006.2 |
| 20260509190554 | 17 | 240 | 9.7 | 24.1 | 0.00 | 0.36 | 0.33 | 71 | 1006.2 |
| 20260509190047 | 17 | 210 | 8.0 | 20.9 | 0.00 | 0.36 | 0.33 | 73 | 1006.2 |
| 20260509185545 | 16 | 211 | 11.3 | 22.5 | 0.00 | 0.36 | 0.33 | 73 | 1006.2 |
| 20260509185046 | 16 | 207 | 9.7 | 22.5 | 0.00 | 0.36 | 0.33 | 75 | 1006.2 |
| 20260509184544 | 16 | 217 | 8.0 | 17.7 | 0.00 | 0.36 | 0.33 | 74 | 1006.2 |
| 20260509184033 | 16 | 217 | 8.0 | 19.3 | 0.00 | 0.36 | 0.33 | 75 | 1006.3 |
| 20260509183531 | 16 | 217 | 9.7 | 19.3 | 0.00 | 0.36 | 0.33 | 75 | 1006.3 |
| 20260509183033 | 16 | 218 | 9.7 | 20.9 | 0.00 | 0.36 | 0.33 | 76 | 1006.3 |
| 20260509182530 | 16 | 215 | 9.7 | 20.9 | 0.00 | 0.36 | 0.33 | 76 | 1006.3 |
| 20260509182030 | 16 | 212 | 9.7 | 17.7 | 0.00 | 0.36 | 0.33 | 77 | 1006.3 |
| 20260509181531 | 15 | 212 | 9.7 | 24.1 | 0.00 | 0.36 | 0.33 | 76 | 1006.3 |
| 20260509181034 | 15 | 207 | 11.3 | 24.1 | 0.00 | 0.36 | 0.33 | 78 | 1006.3 |
| 20260509180524 | 15 | 212 | 11.3 | 20.9 | 0.00 | 0.36 | 0.33 | 78 | 1006.3 |
| 20260509180022 | 15 | 217 | 8.0 | 17.7 | 0.00 | 0.36 | 0.33 | 80 | 1006.3 |
| 20260509175521 | 15 | 216 | 8.0 | 20.9 | 0.00 | 0.36 | 0.33 | 81 | 1006.3 |
| 20260509175017 | 15 | 216 | 9.7 | 20.9 | 0.00 | 0.36 | 0.33 | 82 | 1006.3 |
| 20260509174513 | 15 | 212 | 8.0 | 19.3 | 0.00 | 0.36 | 0.33 | 83 | 1006.3 |
| 20260509174011 | 15 | 213 | 9.7 | 19.3 | 0.00 | 0.36 | 0.33 | 83 | 1006.3 |
| 20260509173509 | 15 | 213 | 8.0 | 19.3 | 0.00 | 0.36 | 0.33 | 83 | 1006.3 |
| 20260509173004 | 15 | 222 | 8.0 | 16.1 | 0.00 | 0.36 | 0.33 | 84 | 1006.1 |
| 20260509172508 | 14 | 222 | 6.4 | 16.1 | 0.00 | 0.36 | 0.33 | 85 | 1006.1 |
| 20260509171955 | 14 | 222 | 6.4 | 17.7 | 0.00 | 0.36 | 0.33 | 86 | 1006.1 |
| 20260509171439 | 14 | 222 | 8.0 | 19.3 | 0.00 | 0.36 | 0.33 | 86 | 1006.0 |
| 20260509170938 | 14 | 222 | 8.0 | 19.3 | 0.00 | 0.36 | 0.33 | 87 | 1006.0 |
| 20260509170427 | 14 | 224 | 11.3 | 24.1 | 0.00 | 0.36 | 0.33 | 88 | 1006.0 |
| 20260509165927 | 14 | 227 | 11.3 | 24.1 | 0.00 | 0.36 | 0.33 | 88 | 1006.0 |
| 20260509165427 | 14 | 224 | 9.7 | 20.9 | 0.00 | 0.36 | 0.33 | 89 | 1006.0 |
| 20260509164929 | 14 | 221 | 8.0 | 17.7 | 0.00 | 0.36 | 0.33 | 90 | 1006.0 |
| 20260509164427 | 13 | 210 | 8.0 | 17.7 | 0.00 | 0.36 | 0.33 | 91 | 1006.0 |
| 20260509163926 | 13 | 210 | 9.7 | 17.7 | 0.00 | 0.36 | 0.33 | 92 | 1006.0 |
| 20260509162924 | 13 | 212 | 8.0 | 16.1 | 0.00 | 0.36 | 0.33 | 94 | 1005.7 |
| 20260509162411 | 13 | 214 | 8.0 | 16.1 | 0.00 | 0.36 | 0.33 | 96 | 1005.9 |
| 20260509161900 | 13 | 214 | 8.0 | 16.1 | 0.00 | 0.36 | 0.33 | 97 | 1005.7 |
| 20260509161353 | 13 | 215 | 6.4 | 16.1 | 0.00 | 0.36 | 0.33 | 98 | 1005.9 |
| 20260509160854 | 13 | 215 | 6.4 | 14.5 | 0.00 | 0.36 | 0.33 | 98 | 1005.9 |
| 20260509160351 | 13 | 215 | 6.4 | 9.7 | 0.00 | 0.36 | 0.33 | 98 | 1005.9 |
| 20260509155350 | 12 | 215 | 4.8 | 16.1 | 0.00 | 0.36 | 0.33 | 98 | 1005.7 |
| 20260509154843 | 12 | 215 | 4.8 | 11.3 | 0.00 | 0.36 | 0.33 | 98 | 1005.7 |
| 20260509154340 | 12 | 215 | 4.8 | 11.3 | 0.03 | 0.36 | 0.33 | 98 | 1005.6 |
| 20260509153842 | 12 | 212 | 4.8 | 11.3 | 0.03 | 0.36 | 0.33 | 98 | 1005.6 |
| 20260509153337 | 12 | 210 | 4.8 | 11.3 | 0.05 | 0.36 | 0.33 | 98 | 1005.6 |
| 20260509152331 | 12 | 206 | 4.8 | 9.7 | 0.05 | 0.36 | 0.33 | 98 | 1005.2 |
| 20260509151831 | 12 | 206 | 4.8 | 11.3 | 0.05 | 0.36 | 0.33 | 98 | 1005.1 |
| 20260509151332 | 11 | 206 | 6.4 | 14.5 | 0.05 | 0.36 | 0.33 | 98 | 1005.1 |
| 20260509150831 | 11 | 206 | 4.8 | 14.5 | 0.05 | 0.36 | 0.33 | 98 | 1005.1 |
| 20260509150330 | 11 | 207 | 4.8 | 11.3 | 0.08 | 0.36 | 0.33 | 98 | 1005.1 |
| 20260509145819 | 11 | 207 | 6.4 | 19.3 | 0.08 | 0.36 | 0.33 | 98 | 1005.5 |
| 20260509145316 | 11 | 207 | 6.4 | 19.3 | 0.08 | 0.36 | 0.33 | 98 | 1005.5 |
| 20260509144818 | 11 | 208 | 6.4 | 16.1 | 0.05 | 0.33 | 0.33 | 98 | 1005.5 |
| 20260509143813 | 11 | 208 | 8.0 | 17.7 | 0.05 | 0.33 | 0.30 | 98 | 1005.6 |
| 20260509143302 | 11 | 210 | 6.4 | 16.1 | 0.05 | 0.30 | 0.28 | 98 | 1005.6 |
| 20260509142757 | 11 | 210 | 6.4 | 11.3 | 0.05 | 0.30 | 0.28 | 98 | 1005.6 |
| 20260509141746 | 11 | 210 | 4.8 | 11.3 | 0.05 | 0.30 | 0.28 | 98 | 1005.6 |
| 20260509141239 | 11 | 210 | 4.8 | 9.7 | 0.05 | 0.30 | 0.28 | 98 | 1005.7 |
| 20260509140732 | 11 | 210 | 4.8 | 9.7 | 0.05 | 0.30 | 0.28 | 97 | 1005.7 |
| 20260509140222 | 11 | 210 | 4.8 | 9.7 | 0.05 | 0.28 | 0.25 | 97 | 1005.7 |
| 20260509135210 | 11 | 210 | 6.4 | 16.1 | 0.05 | 0.28 | 0.25 | 97 | 1005.9 |
| 20260509134700 | 11 | 210 | 6.4 | 9.7 | 0.08 | 0.28 | 0.25 | 97 | 1005.9 |
| 20260509134155 | 11 | 210 | 4.8 | 11.3 | 0.08 | 0.28 | 0.25 | 97 | 1005.9 |
| 20260509132636 | 11 | 212 | 6.4 | 14.5 | 0.05 | 0.25 | 0.23 | 97 | 1005.9 |
| 20260509132130 | 11 | 212 | 4.8 | 16.1 | 0.08 | 0.25 | 0.23 | 97 | 1005.7 |
| 20260509131616 | 11 | 211 | 6.4 | 17.7 | 0.08 | 0.25 | 0.23 | 97 | 1005.7 |
| 20260509130604 | 11 | 214 | 4.8 | 12.9 | 0.08 | 0.25 | 0.23 | 97 | 1005.9 |
| 20260509130104 | 11 | 214 | 4.8 | 12.9 | 0.05 | 0.23 | 0.20 | 97 | 1005.9 |
| 20260509125552 | 11 | 214 | 4.8 | 11.3 | 0.08 | 0.23 | 0.20 | 97 | 1005.9 |
| 20260509125049 | 11 | 214 | 4.8 | 11.3 | 0.08 | 0.23 | 0.20 | 97 | 1005.9 |
| 20260509124549 | 11 | 214 | 4.8 | 9.7 | 0.05 | 0.20 | 0.18 | 97 | 1005.9 |
| 20260509124050 | 11 | 214 | 4.8 | 9.7 | 0.05 | 0.20 | 0.18 | 97 | 1006.0 |
| 20260509123048 | 11 | 214 | 4.8 | 11.3 | 0.05 | 0.20 | 0.18 | 96 | 1006.0 |
| 20260509122544 | 11 | 214 | 6.4 | 16.1 | 0.05 | 0.20 | 0.18 | 96 | 1006.1 |
| 20260509122041 | 11 | 214 | 4.8 | 16.1 | 0.03 | 0.18 | 0.15 | 96 | 1006.1 |
| 20260509121542 | 11 | 214 | 4.8 | 9.7 | 0.05 | 0.18 | 0.15 | 96 | 1006.1 |
| 20260509121043 | 11 | 214 | 3.2 | 9.7 | 0.05 | 0.18 | 0.15 | 96 | 1006.1 |
| 20260509120041 | 11 | 214 | 4.8 | 11.3 | 0.08 | 0.18 | 0.15 | 96 | 1006.1 |
| 20260509115529 | 11 | 214 | 3.2 | 11.3 | 0.05 | 0.15 | 0.13 | 96 | 1006.1 |
| 20260509115033 | 11 | 178 | 3.2 | 8.0 | 0.05 | 0.15 | 0.13 | 95 | 1006.1 |
| 20260509114522 | 11 | 214 | 3.2 | 8.0 | 0.08 | 0.15 | 0.13 | 95 | 1006.1 |
| 20260509113502 | 11 | 214 | 3.2 | 8.0 | 0.08 | 0.15 | 0.13 | 95 | 1006.0 |
| 20260509113002 | 11 | 214 | 3.2 | 6.4 | 0.08 | 0.15 | 0.13 | 95 | 1006.0 |
| 20260509112504 | 11 | 214 | 3.2 | 6.4 | 0.08 | 0.15 | 0.13 | 95 | 1006.0 |
| 20260509111948 | 11 | 214 | 3.2 | 6.4 | 0.08 | 0.15 | 0.13 | 95 | 1006.0 |
| 20260509111440 | 11 | 214 | 1.6 | 6.4 | 0.05 | 0.13 | 0.10 | 94 | 1005.6 |
| 20260509110934 | 11 | 214 | 1.6 | 8.0 | 0.05 | 0.13 | 0.10 | 94 | 1005.6 |
| 20260509105910 | 11 | 214 | 4.8 | 14.5 | 0.03 | 0.10 | 0.08 | 94 | 1005.5 |
| 20260509104905 | 11 | 214 | 4.8 | 9.7 | 0.05 | 0.10 | 0.08 | 94 | 1005.5 |
| 20260509104405 | 11 | 214 | 4.8 | 11.3 | 0.03 | 0.08 | 0.05 | 94 | 1005.4 |
| 20260509103903 | 11 | 214 | 4.8 | 11.3 | 0.03 | 0.08 | 0.05 | 94 | 1005.4 |
| 20260509103353 | 11 | 214 | 4.8 | 8.0 | 0.03 | 0.08 | 0.05 | 94 | 1005.4 |
| 20260509101842 | 11 | 214 | 6.4 | 19.3 | 0.03 | 0.08 | 0.05 | 95 | 1005.4 |
| 20260509101342 | 11 | 214 | 6.4 | 19.3 | 0.03 | 0.08 | 0.05 | 95 | 1005.5 |
| 20260509100828 | 11 | 214 | 8.0 | 19.3 | 0.03 | 0.08 | 0.05 | 95 | 1005.5 |
| 20260509095825 | 11 | 215 | 6.4 | 14.5 | 0.03 | 0.08 | 0.05 | 95 | 1005.6 |
| 20260509094820 | 11 | 215 | 6.4 | 17.7 | 0.00 | 0.05 | 0.03 | 96 | 1005.6 |
| 20260509094317 | 11 | 215 | 4.8 | 14.5 | 0.00 | 0.05 | 0.03 | 96 | 1005.9 |
| 20260509093821 | 11 | 215 | 3.2 | 14.5 | 0.00 | 0.05 | 0.03 | 97 | 1005.9 |
| 20260509093316 | 10 | 217 | 3.2 | 9.7 | 0.00 | 0.05 | 0.03 | 97 | 1005.7 |
| 20260509092812 | 10 | 217 | 4.8 | 11.3 | 0.00 | 0.05 | 0.03 | 97 | 1005.9 |
| 20260509092312 | 10 | 217 | 4.8 | 11.3 | 0.00 | 0.05 | 0.03 | 97 | 1005.9 |
| 20260509091808 | 10 | 217 | 4.8 | 14.5 | 0.00 | 0.05 | 0.03 | 98 | 1005.9 |
| 20260509091302 | 10 | 217 | 4.8 | 14.5 | 0.03 | 0.05 | 0.03 | 98 | 1006.0 |
| 20260509090800 | 10 | 217 | 4.8 | 14.5 | 0.03 | 0.05 | 0.03 | 98 | 1006.0 |
| 20260509085757 | 10 | 217 | 3.2 | 8.0 | 0.03 | 0.05 | 0.03 | 98 | 1006.0 |
| 20260509085252 | 10 | 217 | 1.6 | 6.4 | 0.03 | 0.05 | 0.03 | 98 | 1006.0 |
| 20260509084240 | 10 | 217 | 0.0 | 3.2 | 0.03 | 0.05 | 0.03 | 98 | 1006.1 |
| 20260509083723 | 10 | 217 | 0.0 | 1.6 | 0.03 | 0.05 | 0.03 | 98 | 1006.1 |
| 20260509083221 | 10 | 217 | 0.0 | 1.6 | 0.03 | 0.05 | 0.03 | 98 | 1006.1 |
| 20260509082707 | 10 | 217 | 0.0 | 3.2 | 0.03 | 0.05 | 0.03 | 98 | 1006.1 |
| 20260509081150 | 10 | 217 | 1.6 | 6.4 | 0.00 | 0.03 | 0.00 | 97 | 1006.0 |
| 20260509080649 | 10 | 217 | 1.6 | 6.4 | 0.00 | 0.03 | 0.00 | 97 | 1006.0 |
| 20260509080129 | 10 | 217 | 1.6 | 6.4 | 0.00 | 0.03 | 0.00 | 97 | 1006.0 |
| 20260509075624 | 10 | 217 | 0.0 | 3.2 | 0.00 | 0.03 | 0.00 | 97 | 1005.9 |
| 20260509075121 | 10 | 217 | 1.6 | 6.4 | 0.00 | 0.03 | 0.00 | 97 | 1005.9 |
| 20260509074601 | 10 | 217 | 1.6 | 6.4 | 0.00 | 0.03 | 0.00 | 97 | 1005.9 |
| 20260509074055 | 10 | 217 | 1.6 | 6.4 | 0.00 | 0.03 | 0.00 | 97 | 1005.5 |
| 20260509073553 | 10 | 217 | 1.6 | 6.4 | 0.00 | 0.03 | 0.00 | 97 | 1005.5 |
| 20260509073049 | 10 | 217 | 0.0 | 3.2 | 0.00 | 0.03 | 0.00 | 97 | 1005.5 |
| 20260509072546 | 10 | 217 | 1.6 | 6.4 | 0.00 | 0.03 | 0.00 | 97 | 1005.4 |
| 20260509071516 | 10 | 217 | 0.0 | 3.2 | 0.00 | 0.03 | 0.00 | 97 | 1005.4 |
| 20260509071016 | 10 | 217 | 0.0 | 0.0 | 0.00 | 0.03 | 0.00 | 97 | 1005.3 |
| 20260509070519 | 10 | 217 | 0.0 | 0.0 | 0.00 | 0.03 | 0.00 | 97 | 1005.3 |
| 20260509070012 | 10 | 217 | 0.0 | 0.0 | 0.00 | 0.03 | 0.00 | 97 | 1005.4 |
| 20260509065458 | 10 | 217 | 0.0 | 0.0 | 0.00 | 0.03 | 0.00 | 97 | 1005.4 |
| 20260509064948 | 10 | 217 | 0.0 | 1.6 | 0.00 | 0.03 | 0.00 | 97 | 1005.4 |
| 20260509064441 | 10 | 217 | 0.0 | 1.6 | 0.00 | 0.03 | 0.00 | 97 | 1005.6 |
| 20260509063938 | 10 | 217 | 0.0 | 3.2 | 0.00 | 0.03 | 0.00 | 96 | 1005.6 |
| 20260509062924 | 10 | 217 | 1.6 | 6.4 | 0.00 | 0.03 | 0.00 | 96 | 1006.1 |
| 20260509062419 | 10 | 217 | 1.6 | 6.4 | 0.00 | 0.03 | 0.00 | 96 | 1006.1 |
| 20260509061859 | 10 | 217 | 1.6 | 6.4 | 0.00 | 0.03 | 0.00 | 96 | 1006.1 |
| 20260509061356 | 10 | 217 | 3.2 | 6.4 | 0.00 | 0.03 | 0.00 | 96 | 1006.3 |
| 20260509060849 | 10 | 217 | 3.2 | 6.4 | 0.00 | 0.03 | 0.00 | 96 | 1006.4 |
| 20260509060344 | 10 | 217 | 1.6 | 4.8 | 0.00 | 0.03 | 0.00 | 96 | 1006.3 |
| 20260509055841 | 10 | 217 | 1.6 | 4.8 | 0.00 | 0.03 | 0.00 | 95 | 1006.4 |
| 20260509055341 | 10 | 217 | 3.2 | 6.4 | 0.00 | 0.03 | 0.00 | 95 | 1006.4 |
| 20260509054832 | 10 | 217 | 3.2 | 6.4 | 0.00 | 0.03 | 0.00 | 95 | 1006.4 |
| 20260509054328 | 10 | 217 | 1.6 | 6.4 | 0.00 | 0.03 | 0.00 | 95 | 1006.4 |
| 20260509053830 | 10 | 217 | 0.0 | 0.0 | 0.00 | 0.03 | 0.00 | 95 | 1006.4 |
| 20260509052811 | 10 | 217 | 0.0 | 0.0 | 0.00 | 0.03 | 0.00 | 94 | 1006.4 |
| 20260509052307 | 10 | 217 | 0.0 | 0.0 | 0.00 | 0.03 | 0.00 | 94 | 1006.4 |
| 20260509051810 | 10 | 217 | 0.0 | 0.0 | 0.00 | 0.03 | 0.00 | 94 | 1006.4 |
| 20260509051259 | 10 | 217 | 0.0 | 0.0 | 0.00 | 0.03 | 0.00 | 94 | 1006.4 |
| 20260509050743 | 10 | 217 | 0.0 | 0.0 | 0.00 | 0.03 | 0.00 | 94 | 1006.5 |
| 20260509050239 | 10 | 217 | 0.0 | 0.0 | 0.00 | 0.03 | 0.00 | 94 | 1006.5 |
| 20260509045733 | 10 | 217 | 0.0 | 0.0 | 0.00 | 0.03 | 0.00 | 94 | 1006.5 |
| 20260509045220 | 10 | 217 | 0.0 | 0.0 | 0.00 | 0.03 | 0.00 | 94 | 1006.5 |
| 20260509044703 | 10 | 217 | 0.0 | 0.0 | 0.00 | 0.03 | 0.00 | 94 | 1006.5 |
| 20260509044151 | 10 | 217 | 0.0 | 0.0 | 0.00 | 0.03 | 0.00 | 93 | 1006.6 |
| 20260509043633 | 10 | 217 | 0.0 | 0.0 | 0.00 | 0.03 | 0.00 | 93 | 1006.6 |
| 20260509043123 | 10 | 217 | 0.0 | 1.6 | 0.00 | 0.03 | 0.00 | 93 | 1006.6 |
| 20260509042616 | 10 | 217 | 0.0 | 1.6 | 0.00 | 0.03 | 0.00 | 93 | 1006.9 |
| 20260509042102 | 10 | 217 | 0.0 | 0.0 | 0.00 | 0.03 | 0.00 | 93 | 1006.9 |
| 20260509041039 | 11 | 217 | 0.0 | 0.0 | 0.00 | 0.03 | 0.00 | 93 | 1007.0 |
| 20260509040517 | 11 | 217 | 0.0 | 0.0 | 0.00 | 0.03 | 0.00 | 92 | 1007.0 |
| 20260509040012 | 11 | 217 | 0.0 | 0.0 | 0.00 | 0.03 | 0.00 | 92 | 1007.0 |
| 20260509035436 | 11 | 217 | 0.0 | 0.0 | 0.00 | 0.03 | 0.03 | 92 | 1007.3 |
| 20260509034932 | 11 | 217 | 0.0 | 0.0 | 0.00 | 0.03 | 0.03 | 92 | 1007.3 |
| 20260509034413 | 11 | 217 | 0.0 | 0.0 | 0.00 | 0.03 | 0.03 | 91 | 1007.6 |
| 20260509033912 | 11 | 217 | 0.0 | 0.0 | 0.00 | 0.03 | 0.03 | 91 | 1007.6 |
| 20260509033410 | 11 | 217 | 0.0 | 0.0 | 0.00 | 0.03 | 0.03 | 91 | 1007.6 |
| 20260509032354 | 11 | 217 | 0.0 | 1.6 | 0.00 | 0.03 | 0.03 | 91 | 1007.7 |
| 20260509031837 | 11 | 217 | 0.0 | 1.6 | 0.00 | 0.03 | 0.03 | 90 | 1007.7 |
| 20260509031325 | 11 | 217 | 0.0 | 0.0 | 0.00 | 0.03 | 0.03 | 89 | 1008.1 |
| 20260509030816 | 11 | 217 | 0.0 | 0.0 | 0.00 | 0.03 | 0.03 | 89 | 1008.1 |
| 20260509030303 | 11 | 217 | 0.0 | 0.0 | 0.03 | 0.03 | 0.03 | 89 | 1008.2 |
| 20260509025801 | 11 | 217 | 0.0 | 0.0 | 0.03 | 0.03 | 0.03 | 88 | 1008.2 |
| 20260509025246 | 11 | 217 | 0.0 | 0.0 | 0.03 | 0.03 | 0.03 | 87 | 1008.2 |
| 20260509024735 | 11 | 217 | 0.0 | 0.0 | 0.03 | 0.03 | 0.03 | 87 | 1008.2 |
| 20260509023723 | 11 | 217 | 1.6 | 6.4 | 0.03 | 0.03 | 0.03 | 86 | 1008.2 |
| 20260509023218 | 11 | 217 | 0.0 | 3.2 | 0.03 | 0.03 | 0.03 | 85 | 1008.2 |